Time;durP1;ratioP1;P1;durP2;ratioP2;P2;SDS_P1;SDS_P2;PMS_P1;PMS_P2;Temp;Humidity;BMP_temperature;BMP_pressure;BME280_temperature;BME280_humidity;BME280_pressure;Samples;Min_cycle;Max_cycle;Signal;HPM_P1;HPM_P2
2023/05/30 00:05:34;;;;;;;19.90;10.10;;;;;;;10.02;86.57;99179.46;274136;1267;22138;-84
2023/05/30 00:11:39;;;;;;;18.30;10.20;;;;;;;10.01;86.37;99177.95;274077;1269;22448;-84
2023/05/30 00:18:06;;;;;;;19.50;11.50;;;;;;;9.89;86.37;99179.70;273824;1273;22208;-84
2023/05/30 00:32:29;;;;;;;19.70;11.80;;;;;;;9.70;87.21;99179.22;272079;1282;22339;-85
2023/05/30 00:38:56;;;;;;;19.30;9.70;;;;;;;9.60;87.39;99182.57;271920;1279;22399;-85
2023/05/30 00:53:20;;;;;;;17.90;10.30;;;;;;;9.48;88.67;99199.52;270238;1289;23369;-84
2023/05/30 00:59:23;;;;;;;19.10;11.40;;;;;;;9.45;87.53;99198.29;271394;1285;22495;-84
2023/05/30 01:06:17;;;;;;;20.90;11.50;;;;;;;9.32;87.67;99196.66;272190;1267;22188;-84
2023/05/30 01:28:58;;;;;;;22.20;12.20;;;;;;;9.19;89.66;99200.31;272520;1266;22395;-84
2023/05/30 01:35:55;;;;;;;19.60;11.20;;;;;;;9.19;90.64;99202.40;272689;1269;22331;-85
2023/05/30 01:42:26;;;;;;;16.80;7.90;;;;;;;9.25;90.72;99200.26;272066;1262;25300;-84
2023/05/30 01:49:25;;;;;;;17.80;10.80;;;;;;;9.30;91.39;99192.70;271842;1273;24382;-84
2023/05/30 01:55:54;;;;;;;16.80;10.80;;;;;;;9.28;91.47;99192.52;271322;1272;22647;-84
2023/05/30 02:18:04;;;;;;;20.00;10.90;;;;;;;9.18;92.46;99184.98;272873;1272;22546;-85
2023/05/30 03:03:13;;;;;;;17.70;12.10;;;;;;;9.31;93.50;99213.01;272554;1266;22558;-85
2023/05/30 03:09:42;;;;;;;21.10;12.70;;;;;;;9.27;93.39;99210.52;270573;1267;22550;-85
2023/05/30 03:23:38;;;;;;;19.10;10.60;;;;;;;9.39;94.51;99216.60;272857;1266;23800;-85
2023/05/30 03:36:58;;;;;;;23.10;11.90;;;;;;;9.46;95.29;99223.55;273735;1266;23652;-83
2023/05/30 03:43:01;;;;;;;17.40;11.40;;;;;;;9.59;95.77;99227.05;272063;1266;22547;-83
2023/05/30 03:49:02;;;;;;;19.20;10.10;;;;;;;9.68;95.76;99238.63;272509;1267;22369;-83
2023/05/30 03:55:03;;;;;;;19.50;10.80;;;;;;;9.85;96.23;99244.48;273700;1267;22206;-83
2023/05/30 04:01:04;;;;;;;18.40;11.00;;;;;;;10.04;96.42;99246.31;272709;1266;22491;-83
2023/05/30 04:07:06;;;;;;;14.70;9.50;;;;;;;10.24;96.71;99250.58;274188;1254;22529;-84
2023/05/30 04:13:07;;;;;;;18.00;10.70;;;;;;;10.41;96.72;99257.65;273956;1257;22945;-84
2023/05/30 04:19:08;;;;;;;15.10;9.50;;;;;;;10.59;96.65;99262.31;273827;1266;22339;-84
2023/05/30 04:25:10;;;;;;;16.00;9.30;;;;;;;10.77;96.25;99269.08;272338;1266;22591;-83
2023/05/30 04:31:14;;;;;;;15.60;10.10;;;;;;;10.93;96.17;99276.81;271583;1266;22587;-82
2023/05/30 04:37:18;;;;;;;19.20;11.20;;;;;;;11.04;95.70;99278.38;270650;1265;24253;-85
2023/05/30 04:43:19;;;;;;;27.70;14.30;;;;;;;11.22;95.58;99278.14;270972;1256;22557;-85
2023/05/30 04:49:21;;;;;;;20.30;12.40;;;;;;;11.44;95.64;99282.88;273097;1256;23105;-83
2023/05/30 04:55:23;;;;;;;22.00;13.60;;;;;;;11.66;95.63;99281.04;271676;1254;22792;-85
2023/05/30 05:01:24;;;;;;;21.20;13.70;;;;;;;11.88;95.79;99285.61;270913;1256;22604;-83
2023/05/30 05:07:25;;;;;;;24.90;15.40;;;;;;;12.08;95.67;99292.23;270529;1259;22533;-84
2023/05/30 05:13:26;;;;;;;28.50;15.20;;;;;;;12.25;95.61;99296.95;270740;1256;22552;-83
2023/05/30 05:19:30;;;;;;;26.70;15.60;;;;;;;12.46;95.00;99296.27;273356;1266;22328;-83
2023/05/30 05:25:32;;;;;;;24.20;14.20;;;;;;;12.67;94.66;99302.64;274094;1265;22337;-83
2023/05/30 05:31:33;;;;;;;26.90;15.20;;;;;;;12.92;94.81;99309.01;273681;1256;22711;-84
2023/05/30 05:37:41;;;;;;;28.50;16.00;;;;;;;13.19;94.36;99307.50;271562;1266;22832;-84
2023/05/30 05:43:43;;;;;;;36.30;15.80;;;;;;;13.46;94.01;99312.80;273968;1266;22433;-83
2023/05/30 05:49:44;;;;;;;27.40;14.90;;;;;;;13.73;93.65;99320.70;273823;1259;22327;-83
2023/05/30 05:55:45;;;;;;;26.40;14.20;;;;;;;13.92;93.23;99319.96;273213;1259;23932;-83
2023/05/30 06:01:49;;;;;;;22.80;14.10;;;;;;;14.09;93.11;99318.30;271510;1253;22582;-85
2023/05/30 06:07:51;;;;;;;29.30;14.90;;;;;;;14.29;92.70;99322.66;270820;1264;22559;-83
2023/05/30 06:13:52;;;;;;;24.20;14.60;;;;;;;14.45;91.86;99323.73;271909;1260;23467;-83
2023/05/30 06:19:53;;;;;;;31.00;14.60;;;;;;;14.56;91.78;99327.50;273843;1266;22168;-84
2023/05/30 06:25:54;;;;;;;34.40;14.70;;;;;;;14.67;92.05;99328.92;273872;1265;23544;-84
2023/05/30 06:31:55;;;;;;;30.80;15.10;;;;;;;14.74;91.40;99334.45;273845;1260;22489;-83
2023/05/30 06:37:56;;;;;;;27.60;15.20;;;;;;;14.81;91.12;99338.92;273864;1256;22320;-84
2023/05/30 06:43:57;;;;;;;26.30;13.90;;;;;;;14.94;91.01;99339.92;272033;1265;22536;-83
2023/05/30 06:49:57;;;;;;;29.40;13.50;;;;;;;15.32;90.74;99354.77;270922;1266;22228;-83
2023/05/30 06:55:58;;;;;;;24.20;13.30;;;;;;;15.82;90.27;99361.49;274210;1266;22344;-83
2023/05/30 07:01:59;;;;;;;25.30;13.90;;;;;;;16.07;89.09;99363.98;274122;1257;22370;-84
2023/05/30 07:08:00;;;;;;;23.00;12.70;;;;;;;16.35;89.45;99363.05;274120;1253;23285;-84
2023/05/30 07:14:02;;;;;;;25.00;12.50;;;;;;;16.89;89.18;99360.29;272049;1253;22607;-84
2023/05/30 07:20:04;;;;;;;25.00;13.30;;;;;;;17.51;87.81;99364.61;272090;1253;22334;-84
2023/05/30 07:26:05;;;;;;;21.00;11.40;;;;;;;17.86;85.54;99361.67;274142;1253;22357;-82
2023/05/30 07:32:06;;;;;;;17.80;9.30;;;;;;;17.92;82.91;99363.11;272665;1267;22320;-84
2023/05/30 07:38:08;;;;;;;23.70;11.00;;;;;;;18.03;82.38;99359.40;273493;1250;22412;-84
2023/05/30 07:44:10;;;;;;;20.90;11.70;;;;;;;18.42;83.43;99360.60;273550;1264;22563;-82
2023/05/30 07:50:11;;;;;;;17.90;10.30;;;;;;;18.97;81.85;99355.01;273993;1253;23068;-83
2023/05/30 07:56:12;;;;;;;19.70;9.80;;;;;;;19.22;80.50;99355.36;274170;1256;22450;-84
2023/05/30 08:02:25;;;;;;;18.80;10.80;;;;;;;19.17;78.86;99361.31;273513;1266;22886;-83
2023/05/30 08:08:27;;;;;;;15.80;9.00;;;;;;;19.21;77.71;99364.66;273852;1266;23013;-84
2023/05/30 08:14:28;;;;;;;17.40;9.60;;;;;;;19.42;77.38;99369.86;274009;1256;22472;-83
2023/05/30 08:20:29;;;;;;;18.60;9.40;;;;;;;19.44;76.50;99371.65;274064;1266;22317;-84
2023/05/30 08:26:30;;;;;;;12.10;7.90;;;;;;;19.47;75.55;99367.54;271594;1266;26310;-84
2023/05/30 08:32:32;;;;;;;15.50;8.30;;;;;;;19.73;74.74;99363.45;270940;1266;22541;-84
2023/05/30 08:38:34;;;;;;;21.00;9.80;;;;;;;19.92;73.98;99367.43;271126;1251;22426;-84
2023/05/30 08:44:35;;;;;;;15.80;8.40;;;;;;;20.11;73.06;99367.23;272746;1258;23345;-85
2023/05/30 08:50:36;;;;;;;15.60;8.90;;;;;;;20.16;72.27;99366.71;274065;1266;22189;-84
2023/05/30 08:56:42;;;;;;;18.80;8.70;;;;;;;20.36;72.10;99367.48;273513;1266;22411;-84
2023/05/30 09:02:43;;;;;;;17.40;9.20;;;;;;;20.58;71.79;99373.17;274109;1256;23244;-85
2023/05/30 09:08:47;;;;;;;19.40;8.70;;;;;;;20.97;71.34;99370.65;272354;1263;22213;-86
2023/05/30 09:14:48;;;;;;;25.30;9.70;;;;;;;21.17;70.20;99369.66;273423;1266;23000;-84
2023/05/30 09:20:50;;;;;;;17.30;8.50;;;;;;;21.35;70.72;99369.98;271423;1262;22543;-85
2023/05/30 09:27:02;;;;;;;15.20;7.30;;;;;;;21.71;69.32;99369.58;274045;1266;23173;-84
2023/05/30 09:33:03;;;;;;;13.00;6.60;;;;;;;21.86;68.36;99363.05;274077;1257;23111;-85
2023/05/30 09:39:05;;;;;;;11.30;5.40;;;;;;;21.87;66.88;99356.58;273235;1253;22641;-84
2023/05/30 09:45:08;;;;;;;15.30;6.10;;;;;;;22.13;65.65;99354.45;271401;1266;22533;-86
2023/05/30 09:51:11;;;;;;;9.10;3.10;;;;;;;22.55;65.89;99354.35;271273;1266;22573;-85
2023/05/30 09:57:13;;;;;;;9.00;3.40;;;;;;;22.55;63.26;99363.52;271279;1257;166457;-88
2023/05/30 10:03:15;;;;;;;10.00;3.60;;;;;;;22.19;61.59;99365.73;272087;1259;22512;-86
2023/05/30 10:09:16;;;;;;;7.00;3.00;;;;;;;21.85;59.92;99365.63;273968;1257;22336;-85
2023/05/30 10:15:27;;;;;;;4.80;2.90;;;;;;;21.81;59.87;99368.28;274174;1266;23527;-83
2023/05/30 10:21:30;;;;;;;12.90;3.30;;;;;;;22.57;59.75;99365.04;274040;1266;22324;-86
2023/05/30 10:27:34;;;;;;;7.90;2.80;;;;;;;23.37;57.32;99361.70;273968;1259;24124;-85
2023/05/30 10:33:40;;;;;;;6.60;3.30;;;;;;;24.08;56.29;99362.82;273395;1256;22434;-86
2023/05/30 10:39:58;;;;;;;5.90;3.10;;;;;;;24.31;54.68;99360.48;273982;1266;22184;-86
2023/05/30 10:46:07;;;;;;;5.50;2.80;;;;;;;24.59;53.31;99351.97;273699;1256;22262;-85
2023/05/30 10:52:09;;;;;;;7.60;3.30;;;;;;;24.81;52.20;99350.20;273252;1267;24018;-85
2023/05/30 10:58:41;;;;;;;5.20;2.90;;;;;;;25.01;50.43;99350.04;272012;1266;23219;-86
2023/05/30 11:04:53;;;;;;;5.70;2.70;;;;;;;25.27;49.15;99352.67;271358;1260;27560;-84
2023/05/30 11:10:58;;;;;;;5.50;3.00;;;;;;;24.83;47.90;99346.50;272941;1267;22441;-85
2023/05/30 11:17:03;;;;;;;5.90;3.10;;;;;;;24.27;48.11;99346.98;274282;1256;22182;-85
2023/05/30 11:23:08;;;;;;;7.70;3.40;;;;;;;24.73;48.37;99340.52;274201;1266;22230;-86
2023/05/30 11:29:47;;;;;;;6.30;3.00;;;;;;;25.48;47.45;99341.61;274334;1265;22360;-86
2023/05/30 11:35:53;;;;;;;5.80;2.50;;;;;;;26.06;45.56;99337.52;274161;1257;22209;-88
2023/05/30 11:41:58;;;;;;;5.00;3.00;;;;;;;25.33;44.38;99337.02;274174;1266;23544;-86
2023/05/30 11:48:06;;;;;;;5.60;2.90;;;;;;;24.19;44.77;99339.59;272249;1263;22603;-85
2023/05/30 11:54:09;;;;;;;7.00;2.80;;;;;;;23.50;45.16;99342.90;273898;1269;23710;-85
2023/05/30 12:00:13;;;;;;;6.90;3.20;;;;;;;23.09;45.68;99345.25;273449;1266;22405;-86
2023/05/30 12:06:15;;;;;;;6.70;2.80;;;;;;;22.83;46.03;99347.09;274165;1266;22393;-85
2023/05/30 12:12:16;;;;;;;7.60;3.20;;;;;;;22.68;46.16;99343.92;274008;1266;22432;-86
2023/05/30 12:18:17;;;;;;;8.40;2.80;;;;;;;22.54;46.17;99336.66;274291;1265;22686;-85
2023/05/30 12:24:23;;;;;;;5.20;2.70;;;;;;;22.71;46.29;99337.50;273899;1267;23816;-86
2023/05/30 12:30:24;;;;;;;6.50;2.90;;;;;;;23.23;46.06;99331.21;274090;1267;22328;-84
2023/05/30 12:36:25;;;;;;;4.40;2.30;;;;;;;23.44;45.05;99328.02;271998;1266;22530;-85
2023/05/30 12:42:29;;;;;;;7.10;2.90;;;;;;;23.23;44.47;99331.76;273700;1255;22463;-87
2023/05/30 12:48:30;;;;;;;6.00;2.80;;;;;;;23.11;44.58;99330.12;274014;1259;22322;-86
2023/05/30 12:54:34;;;;;;;5.60;2.70;;;;;;;23.01;44.87;99329.65;272388;1266;22510;-86
2023/05/30 13:00:36;;;;;;;4.20;3.10;;;;;;;22.93;44.94;99330.70;272223;1266;23214;-86
2023/05/30 13:06:37;;;;;;;6.40;2.90;;;;;;;22.84;45.19;99332.45;270987;1266;22651;-86
2023/05/30 13:12:46;;;;;;;5.10;2.70;;;;;;;22.88;45.33;99330.50;271577;1266;22504;-85
2023/05/30 13:18:50;;;;;;;5.60;2.70;;;;;;;22.63;45.41;99332.40;271849;1267;22559;-85
2023/05/30 13:24:51;;;;;;;5.60;2.70;;;;;;;22.30;45.40;99330.67;272157;1266;24219;-85
2023/05/30 13:30:52;;;;;;;6.50;2.80;;;;;;;22.40;45.23;99327.45;273788;1266;22347;-86
2023/05/30 13:36:53;;;;;;;4.30;2.80;;;;;;;22.64;44.49;99322.83;274006;1266;22975;-85
2023/05/30 13:42:54;;;;;;;8.90;3.40;;;;;;;22.95;44.31;99324.92;274001;1266;22628;-85
2023/05/30 13:48:57;;;;;;;5.80;3.30;;;;;;;23.05;43.81;99323.36;273449;1266;24173;-86
2023/05/30 13:54:58;;;;;;;5.20;2.80;;;;;;;22.81;43.51;99322.20;273825;1267;22329;-86
2023/05/30 14:01:13;;;;;;;5.40;3.00;;;;;;;22.59;43.92;99318.94;274084;1266;22262;-86
2023/05/30 14:07:14;;;;;;;7.40;3.20;;;;;;;22.67;43.80;99318.91;274094;1266;22466;-85
2023/05/30 14:13:15;;;;;;;6.80;3.10;;;;;;;22.97;43.98;99318.05;273993;1267;22324;-86
2023/05/30 14:19:38;;;;;;;9.30;3.40;;;;;;;23.00;43.53;99323.30;271955;1259;25413;-86
2023/05/30 14:25:40;;;;;;;5.60;2.90;;;;;;;22.60;42.98;99335.61;270751;1261;24001;-86
2023/05/30 14:32:16;;;;;;;6.10;2.70;;;;;;;22.19;43.47;99339.11;271756;1266;26622;-87
2023/05/30 14:38:38;;;;;;;7.10;2.90;;;;;;;22.00;43.77;99342.33;271941;1268;22092;-86
2023/05/30 14:44:39;;;;;;;6.00;3.30;;;;;;;21.86;43.99;99342.77;273832;1266;23509;-85
2023/05/30 14:50:40;;;;;;;6.40;2.80;;;;;;;21.63;44.08;99340.75;273987;1267;22241;-86
2023/05/30 14:56:42;;;;;;;11.60;3.10;;;;;;;21.49;44.47;99340.42;272863;1263;24208;-86
2023/05/30 15:02:44;;;;;;;6.50;3.00;;;;;;;21.39;44.91;99342.60;273352;1267;23611;-86
2023/05/30 15:08:45;;;;;;;4.40;2.30;;;;;;;21.37;44.85;99348.52;273183;1267;22534;-86
2023/05/30 15:14:46;;;;;;;6.10;3.00;;;;;;;21.37;45.02;99348.39;273676;1257;22374;-88
2023/05/30 15:20:47;;;;;;;4.60;2.50;;;;;;;21.42;45.45;99345.85;273473;1257;22365;-87
2023/05/30 15:26:49;;;;;;;6.50;2.80;;;;;;;21.63;45.53;99348.54;274053;1266;22456;-87
2023/05/30 15:32:52;;;;;;;3.60;2.50;;;;;;;21.83;45.02;99346.10;273882;1266;25526;-86
2023/05/30 15:38:53;;;;;;;6.30;2.80;;;;;;;21.98;44.63;99348.54;271963;1267;22210;-87
2023/05/30 15:44:54;;;;;;;6.00;2.80;;;;;;;22.12;44.09;99345.70;274086;1265;23603;-86
2023/05/30 15:50:57;;;;;;;7.30;3.00;;;;;;;22.06;43.77;99343.11;271785;1263;22550;-86
2023/05/30 15:57:01;;;;;;;5.50;2.30;;;;;;;21.90;43.51;99343.91;271494;1256;24303;-86
2023/05/30 16:03:04;;;;;;;4.60;3.20;;;;;;;21.78;43.69;99346.16;270666;1266;22560;-85
2023/05/30 16:09:08;;;;;;;7.70;2.40;;;;;;;21.54;43.79;99350.38;272843;1263;23107;-86
2023/05/30 16:15:09;;;;;;;6.60;2.70;;;;;;;21.27;43.89;99348.41;274290;1267;22423;-85
2023/05/30 16:21:10;;;;;;;9.50;2.60;;;;;;;21.04;44.13;99347.66;270928;1267;22924;-87
2023/05/30 16:27:27;;;;;;;4.50;2.30;;;;;;;20.90;44.28;99355.45;270677;1258;22591;-86
2023/05/30 16:33:28;;;;;;;;;;;;;;;20.79;44.59;99353.10;270762;1254;23005;-86
2023/05/30 16:39:50;;;;;;;6.60;2.30;;;;;;;20.70;44.84;99356.52;270372;1263;22554;-87
2023/05/30 16:45:51;;;;;;;7.70;2.30;;;;;;;20.59;44.83;99361.53;270709;1267;22776;-87
2023/05/30 16:51:52;;;;;;;4.50;2.50;;;;;;;20.52;44.72;99367.52;272755;1255;22342;-88
2023/05/30 16:58:03;;;;;;;7.40;2.60;;;;;;;20.50;44.75;99375.67;273328;1266;23294;-86
2023/05/30 17:04:04;;;;;;;5.40;2.50;;;;;;;20.49;44.83;99382.73;274115;1266;22373;-86
2023/05/30 17:10:06;;;;;;;7.70;2.30;;;;;;;20.47;44.74;99387.89;272821;1265;23462;-87
2023/05/30 17:16:16;;;;;;;6.80;2.60;;;;;;;20.38;45.09;99391.27;274003;1265;22277;-87
2023/05/30 17:22:18;;;;;;;5.00;2.80;;;;;;;20.23;45.25;99402.38;274119;1266;22388;-87
2023/05/30 17:28:20;;;;;;;7.10;2.40;;;;;;;20.10;45.12;99407.97;273884;1265;22282;-87
2023/05/30 17:34:25;;;;;;;5.90;2.40;;;;;;;19.99;44.87;99412.07;273851;1267;22352;-85
2023/05/30 17:40:41;;;;;;;5.20;2.30;;;;;;;19.85;44.80;99419.17;273763;1263;23290;-87
2023/05/30 17:46:42;;;;;;;5.80;2.30;;;;;;;19.72;44.83;99424.67;274130;1266;22300;-87
2023/05/30 17:52:47;;;;;;;5.80;2.20;;;;;;;19.60;45.06;99427.13;273764;1266;23339;-86
2023/05/30 17:58:49;;;;;;;6.80;3.00;;;;;;;19.44;45.44;99429.71;274065;1267;22872;-86
2023/05/30 18:04:50;;;;;;;6.70;2.40;;;;;;;19.29;45.66;99440.04;272661;1266;22228;-86
2023/05/30 18:10:52;;;;;;;6.40;2.40;;;;;;;19.12;46.00;99442.28;272280;1266;23051;-86
2023/05/30 18:16:53;;;;;;;9.40;2.40;;;;;;;18.93;46.25;99445.19;272450;1263;22350;-86
2023/05/30 18:22:55;;;;;;;6.70;2.10;;;;;;;18.75;46.67;99454.81;274087;1266;22374;-87
2023/05/30 18:28:56;;;;;;;6.00;2.30;;;;;;;18.57;46.86;99468.21;274009;1266;23678;-87
2023/05/30 18:34:57;;;;;;;5.10;2.20;;;;;;;18.35;47.25;99474.52;274071;1266;23284;-87
2023/05/30 18:40:59;;;;;;;6.50;3.00;;;;;;;18.14;47.74;99477.52;274048;1266;22422;-87
2023/05/30 18:47:41;;;;;;;8.70;3.30;;;;;;;17.95;48.50;99480.60;273783;1266;26826;-86
2023/05/30 18:54:03;;;;;;;7.70;2.40;;;;;;;17.72;49.20;99489.05;271439;1266;23251;-87
2023/05/30 19:00:30;;;;;;;7.90;3.50;;;;;;;17.48;49.63;99494.33;271579;1266;22537;-87
2023/05/30 19:06:55;;;;;;;;;;;;;;;17.23;50.15;99504.73;271139;1266;22666;-86
2023/05/30 19:12:58;;;;;;;6.80;3.00;;;;;;;16.93;50.75;99512.91;271824;1263;23931;-86
2023/05/30 19:19:05;;;;;;;9.00;3.70;;;;;;;16.60;51.40;99526.75;273375;1266;22700;-88
2023/05/30 19:25:07;;;;;;;14.40;3.70;;;;;;;16.28;52.14;99541.22;273523;1266;22358;-85
2023/05/30 19:31:13;;;;;;;7.70;3.30;;;;;;;16.00;52.97;99550.59;272603;1266;22742;-87
2023/05/30 19:37:50;;;;;;;10.90;3.50;;;;;;;15.77;54.17;99555.45;270853;1266;24957;-85
2023/05/30 19:43:52;;;;;;;7.80;3.20;;;;;;;15.53;55.02;99562.46;272033;1263;22557;-86
2023/05/30 19:50:17;;;;;;;10.70;3.60;;;;;;;15.29;56.77;99561.64;272554;1251;22639;-85
2023/05/30 19:56:39;;;;;;;8.80;2.70;;;;;;;15.12;57.34;99565.31;273136;1261;22220;-86
2023/05/30 20:03:02;;;;;;;16.00;3.70;;;;;;;15.02;58.13;99565.21;273862;1266;25470;-85
2023/05/30 20:09:19;;;;;;;9.70;3.60;;;;;;;14.84;58.86;99575.87;270772;1266;23879;-85
2023/05/30 20:15:21;;;;;;;7.70;3.40;;;;;;;14.70;59.88;99581.65;270632;1267;25316;-86
2023/05/30 20:21:22;;;;;;;9.40;3.50;;;;;;;14.55;60.37;99580.40;264687;1257;10002068;-85
2023/05/30 20:27:22;;;;;;;7.30;3.50;;;;;;;14.40;60.24;99584.03;271995;1266;22257;-85
2023/05/30 20:33:23;;;;;;;12.10;3.90;;;;;;;14.25;60.73;99585.35;272520;1266;23740;-86
2023/05/30 20:39:24;;;;;;;6.30;3.40;;;;;;;14.09;61.31;99588.86;273564;1266;23431;-85
2023/05/30 20:45:25;;;;;;;7.70;3.70;;;;;;;13.94;61.80;99594.49;273944;1259;22460;-85
2023/05/30 20:51:47;;;;;;;7.90;3.60;;;;;;;13.78;62.30;99599.48;273683;1251;24065;-85
2023/05/30 20:57:48;;;;;;;8.50;3.20;;;;;;;13.63;62.73;99602.05;271470;1266;22730;-85
2023/05/30 21:03:49;;;;;;;7.00;3.70;;;;;;;13.49;63.10;99604.11;272643;1253;22241;-86
2023/05/30 21:09:50;;;;;;;11.50;4.50;;;;;;;13.37;64.01;99607.84;273809;1265;22324;-86
2023/05/30 21:15:51;;;;;;;9.90;3.70;;;;;;;13.25;64.14;99615.11;270427;1266;24256;-85
2023/05/30 21:21:52;;;;;;;12.40;4.80;;;;;;;13.20;64.83;99616.63;270628;1266;23807;-84
2023/05/30 21:27:53;;;;;;;8.50;4.30;;;;;;;13.08;65.39;99612.58;270749;1265;23289;-84
2023/05/30 21:33:58;;;;;;;11.00;4.40;;;;;;;12.95;65.84;99609.34;272308;1265;22308;-83
2023/05/30 21:39:59;;;;;;;12.40;4.20;;;;;;;12.80;66.33;99611.84;274095;1254;22360;-84
2023/05/30 21:46:00;;;;;;;9.70;4.40;;;;;;;12.62;66.61;99622.76;274235;1253;22447;-84
2023/05/30 21:52:02;;;;;;;9.40;3.90;;;;;;;12.46;67.50;99629.45;274118;1266;22335;-85
2023/05/30 21:58:03;;;;;;;20.40;4.50;;;;;;;12.33;68.19;99630.91;270751;1266;95126;-83
2023/05/30 22:04:07;;;;;;;10.90;3.50;;;;;;;12.23;69.18;99631.41;271461;1267;22536;-85
2023/05/30 22:10:16;;;;;;;9.80;4.00;;;;;;;12.13;69.70;99635.11;270671;1266;22183;-85
2023/05/30 22:16:17;;;;;;;7.30;4.10;;;;;;;11.99;69.62;99636.06;272133;1261;24270;-84
2023/05/30 22:22:17;;;;;;;10.90;5.50;;;;;;;11.86;70.31;99636.63;270860;1256;22676;-84
2023/05/30 22:28:26;;;;;;;12.40;4.90;;;;;;;11.69;70.62;99635.33;270523;1266;22644;-84
2023/05/30 22:34:27;;;;;;;9.20;4.50;;;;;;;11.58;71.13;99630.11;270805;1257;22942;-84
2023/05/30 22:40:28;;;;;;;7.10;3.70;;;;;;;11.42;71.76;99636.41;272399;1266;23590;-85
2023/05/30 22:46:49;;;;;;;11.20;4.00;;;;;;;11.24;72.40;99640.23;274199;1266;22430;-85
2023/05/30 22:52:50;;;;;;;10.60;3.50;;;;;;;11.06;72.70;99636.36;274218;1263;22244;-85
2023/05/30 22:58:51;;;;;;;6.70;3.30;;;;;;;10.87;72.64;99641.23;274092;1258;23052;-85
2023/05/30 23:04:52;;;;;;;6.90;3.20;;;;;;;10.78;73.28;99641.37;274199;1266;22396;-85
2023/05/30 23:10:53;;;;;;;6.90;2.80;;;;;;;10.70;74.63;99638.46;273686;1267;23296;-84
2023/05/30 23:16:54;;;;;;;7.70;3.50;;;;;;;10.57;74.90;99640.15;270896;1254;24253;-84
2023/05/30 23:22:55;;;;;;;8.90;3.20;;;;;;;10.40;74.89;99644.99;273576;1267;22360;-85
2023/05/30 23:28:56;;;;;;;6.30;3.80;;;;;;;10.27;76.15;99646.19;274168;1266;23256;-84
2023/05/30 23:34:57;;;;;;;13.70;3.80;;;;;;;10.19;76.22;99641.95;274186;1266;22293;-84
2023/05/30 23:40:58;;;;;;;9.50;4.10;;;;;;;9.95;75.89;99638.79;274079;1254;22606;-83
2023/05/30 23:46:59;;;;;;;11.50;3.90;;;;;;;9.78;76.89;99640.31;272238;1266;23254;-83
2023/05/30 23:53:01;;;;;;;8.00;3.80;;;;;;;9.68;77.14;99647.81;272909;1262;22378;-84
2023/05/30 23:59:02;;;;;;;6.10;3.60;;;;;;;9.54;77.63;99646.54;274189;1266;22330;-84
